createdAt,value
2019-06-10T00:01:57.442Z,96.60
2019-06-10T00:04:43.370Z,96.70
2019-06-10T00:07:28.355Z,96.60
2019-06-10T00:10:13.724Z,96.70
2019-06-10T00:13:01.008Z,96.60
2019-06-10T00:15:45.472Z,96.70
2019-06-10T00:18:40.701Z,97.00
2019-06-10T00:21:17.283Z,97.20
2019-06-10T00:24:02.609Z,97.40
2019-06-10T00:26:51.036Z,97.40
2019-06-10T00:29:35.893Z,97.30
2019-06-10T00:32:21.527Z,97.60
2019-06-10T00:35:07.764Z,97.80
2019-06-10T00:37:52.975Z,97.70
2019-06-10T00:40:37.689Z,97.70
2019-06-10T00:43:22.498Z,97.90
2019-06-10T00:46:07.766Z,97.70
2019-06-10T00:48:53.790Z,97.50
2019-06-10T00:51:41.458Z,97.70
2019-06-10T00:54:26.287Z,97.90
2019-06-10T00:57:12.364Z,97.70
2019-06-10T00:59:57.881Z,97.80
2019-06-10T01:02:42.839Z,97.60
2019-06-10T01:05:27.636Z,97.70
2019-06-10T01:08:15.564Z,97.60
2019-06-10T01:11:04.124Z,97.60
2019-06-10T01:13:46.145Z,97.80
2019-06-10T01:16:31.764Z,97.70
2019-06-10T01:19:16.814Z,97.80
2019-06-10T01:22:01.672Z,98.00
2019-06-10T01:24:46.936Z,98.10
2019-06-10T01:27:31.761Z,98.20
2019-06-10T01:30:22.588Z,98.60
2019-06-10T01:33:03.611Z,98.10
2019-06-10T01:35:48.475Z,98.10
2019-06-10T01:38:33.294Z,97.90
2019-06-10T01:41:21.155Z,98.10
2019-06-10T01:44:06.476Z,98.30
2019-06-10T01:46:51.686Z,98.10
2019-06-10T01:49:36.758Z,98.00
2019-06-10T01:52:21.597Z,98.20
2019-06-10T01:55:07.561Z,98.30
2019-06-10T01:57:52.745Z,98.40
2019-06-10T02:00:57.818Z,98.20
2019-06-10T02:03:42.445Z,98.30
2019-06-10T02:06:31.483Z,98.20
2019-06-10T02:09:17.194Z,98.30
2019-06-10T02:12:03.053Z,98.50
2019-06-10T02:14:48.054Z,98.40
2019-06-10T02:17:32.793Z,98.50
2019-06-10T02:20:18.474Z,98.70
2019-06-10T02:23:04.319Z,98.70
2019-06-10T02:25:51.270Z,98.70
2019-06-10T02:28:36.641Z,98.70
2019-06-10T02:31:30.107Z,98.70
2019-06-10T02:34:08.690Z,99.00
2019-06-10T02:36:54.023Z,98.80
2019-06-10T02:39:39.405Z,98.80
2019-06-10T02:42:30.707Z,98.80
2019-06-10T02:45:18.317Z,99.00
2019-06-10T02:48:03.908Z,98.90
2019-06-10T02:50:54.001Z,99.10
2019-06-10T02:53:38.242Z,99.00
2019-06-10T02:56:30.004Z,98.90
2019-06-10T02:59:13.070Z,98.90
2019-06-10T03:01:57.123Z,98.90
2019-06-10T03:04:43.343Z,98.80
2019-06-10T03:07:31.088Z,99.00
2019-06-10T03:10:16.320Z,99.00
2019-06-10T03:13:05.286Z,99.00
2019-06-10T03:15:52.311Z,99.20
2019-06-10T03:18:37.542Z,99.20
2019-06-10T03:21:24.241Z,99.20
2019-06-10T03:24:09.190Z,99.20
2019-06-10T03:26:54.551Z,99.30
2019-06-10T03:29:39.205Z,99.30
2019-06-10T03:32:32.611Z,99.30
2019-06-10T03:35:13.224Z,99.40
2019-06-10T03:37:58.242Z,99.20
2019-06-10T03:40:43.457Z,99.20
2019-06-10T03:43:28.463Z,99.20
2019-06-10T03:46:13.712Z,99.30
2019-06-10T03:48:59.098Z,99.30
2019-06-10T03:51:43.785Z,99.20
2019-06-10T03:54:29.561Z,99.30
2019-06-10T03:57:14.969Z,99.30
2019-06-10T04:00:01.974Z,99.20
2019-06-10T04:02:46.649Z,99.20
2019-06-10T04:05:33.164Z,99.20
2019-06-10T04:08:19.421Z,99.40
2019-06-10T04:11:04.453Z,99.40
2019-06-10T04:13:49.490Z,99.40
2019-06-10T04:16:34.268Z,99.50
2019-06-10T04:19:19.641Z,99.60
2019-06-10T04:22:04.246Z,99.60
2019-06-10T04:24:49.125Z,99.70
2019-06-10T04:27:33.821Z,99.80
2019-06-10T04:30:23.204Z,99.80
2019-06-10T04:33:07.497Z,99.80
2019-06-10T04:35:52.281Z,99.80
2019-06-10T04:38:37.146Z,99.90
2019-06-10T04:41:23.450Z,99.90
2019-06-10T04:44:08.622Z,99.70
2019-06-10T04:46:53.646Z,99.40
2019-06-10T04:49:38.530Z,99.20
2019-06-10T04:52:25.148Z,99.20
2019-06-10T04:55:12.635Z,98.90
2019-06-10T04:57:57.857Z,99.10
2019-06-10T05:00:42.977Z,99.00
2019-06-10T05:03:28.360Z,98.80
2019-06-10T05:06:14.334Z,98.90
2019-06-10T05:08:59.186Z,99.00
2019-06-10T05:11:43.958Z,99.50
2019-06-10T05:14:30.295Z,99.20
2019-06-10T05:17:15.719Z,99.20
2019-06-10T05:20:02.529Z,99.30
2019-06-10T05:22:47.533Z,99.00
2019-06-10T05:25:32.727Z,99.10
2019-06-10T05:28:18.136Z,99.20
2019-06-10T05:31:03.112Z,99.50
2019-06-10T05:33:48.234Z,99.40
2019-06-10T05:36:34.602Z,99.20
2019-06-10T05:39:20.998Z,99.00
2019-06-10T05:42:07.000Z,99.00
2019-06-10T05:44:52.487Z,99.00
2019-06-10T05:47:37.428Z,99.20
2019-06-10T05:50:23.712Z,99.10
2019-06-10T05:53:09.178Z,98.80
2019-06-10T05:55:54.093Z,98.80
2019-06-10T05:58:38.873Z,98.80
2019-06-10T06:01:24.537Z,98.10
2019-06-10T06:04:12.646Z,98.10
2019-06-10T06:06:57.674Z,98.40
2019-06-10T06:09:42.741Z,98.00
2019-06-10T06:12:29.105Z,97.70
2019-06-10T06:15:14.965Z,97.50
2019-06-10T06:18:07.198Z,97.10
2019-06-10T06:20:46.470Z,96.70
2019-06-10T06:23:33.885Z,96.30
2019-06-10T06:26:18.081Z,96.60
2019-06-10T06:29:04.862Z,96.80
2019-06-10T06:31:52.103Z,97.00
2019-06-10T06:34:38.687Z,97.10
2019-06-10T06:37:23.425Z,97.20
2019-06-10T06:40:08.634Z,97.10
2019-06-10T06:42:53.617Z,97.60
2019-06-10T06:45:39.000Z,97.80
2019-06-10T06:48:24.238Z,97.50
2019-06-10T06:51:08.991Z,97.70
2019-06-10T06:53:56.232Z,97.70
2019-06-10T06:56:41.084Z,97.50
2019-06-10T06:59:27.436Z,97.20
2019-06-10T07:02:12.491Z,97.30
2019-06-10T07:04:57.803Z,97.30
2019-06-10T07:07:43.464Z,97.50
2019-06-10T07:10:30.935Z,97.60
2019-06-10T07:13:16.573Z,98.00
2019-06-10T07:16:02.925Z,97.60
2019-06-10T07:18:50.288Z,98.00
2019-06-10T07:21:55.721Z,96.80
2019-06-10T07:24:23.164Z,97.10
2019-06-10T07:27:08.293Z,96.40
2019-06-10T07:29:53.221Z,96.40
2019-06-10T07:32:39.204Z,96.00
2019-06-10T07:35:25.089Z,95.80
2019-06-10T07:38:12.235Z,95.70
2019-06-10T07:40:57.159Z,95.90
2019-06-10T07:43:48.975Z,95.30
2019-06-10T07:46:28.905Z,95.30
2019-06-10T07:49:13.690Z,95.40
2019-06-10T07:52:14.882Z,95.10
2019-06-10T07:54:49.294Z,94.70
2019-06-10T07:57:37.502Z,94.90
2019-06-10T08:00:22.970Z,95.90
2019-06-10T08:03:07.628Z,95.10
2019-06-10T08:05:52.692Z,95.40
2019-06-10T08:08:38.840Z,94.40
2019-06-10T08:11:24.356Z,95.10
2019-06-10T08:14:09.549Z,95.50
2019-06-10T08:16:54.327Z,95.70
2019-06-10T08:19:42.845Z,95.50
2019-06-10T08:22:33.440Z,95.80
2019-06-10T08:25:13.325Z,95.30
2019-06-10T08:27:58.675Z,95.30
2019-06-10T08:30:46.128Z,95.50
2019-06-10T08:33:33.112Z,94.50
2019-06-10T08:36:18.621Z,94.30
2019-06-10T08:39:05.374Z,92.60
2019-06-10T08:41:52.676Z,91.20
2019-06-10T08:44:37.148Z,90.80
2019-06-10T08:47:22.921Z,91.00
2019-06-10T08:50:08.149Z,91.60
2019-06-10T08:53:09.037Z,90.80
2019-06-10T08:55:42.872Z,92.00
2019-06-10T08:58:27.109Z,92.00
2019-06-10T09:01:13.285Z,91.90
2019-06-10T09:03:58.763Z,91.20
2019-06-10T09:06:48.791Z,92.00
2019-06-10T09:09:33.063Z,92.10
2019-06-10T09:12:30.403Z,91.50
2019-06-10T09:15:05.627Z,92.20
2019-06-10T09:17:55.251Z,93.10
2019-06-10T09:20:40.317Z,92.70
2019-06-10T09:23:25.695Z,92.90
2019-06-10T09:26:12.525Z,92.90
2019-06-10T09:28:57.963Z,93.30
2019-06-10T09:31:46.755Z,93.80
2019-06-10T09:34:29.139Z,93.10
2019-06-10T09:37:14.224Z,92.80
2019-06-10T09:39:59.862Z,91.80
2019-06-10T09:42:48.134Z,91.20
2019-06-10T09:45:33.198Z,89.70
2019-06-10T09:48:22.705Z,87.70
2019-06-10T09:51:08.345Z,86.70
2019-06-10T09:54:02.441Z,85.60
2019-06-10T09:56:42.771Z,83.80
2019-06-10T09:59:26.893Z,85.20
2019-06-10T10:02:12.579Z,85.60
2019-06-10T10:04:58.542Z,85.60
2019-06-10T10:07:46.988Z,82.70
2019-06-10T10:10:35.851Z,86.00
2019-06-10T10:13:22.518Z,86.40
2019-06-10T10:16:07.554Z,85.30
2019-06-10T10:19:00.220Z,85.70
2019-06-10T10:21:41.306Z,87.90
2019-06-10T10:24:25.878Z,86.50
2019-06-10T10:27:13.237Z,85.60
2019-06-10T10:29:57.563Z,86.20
2019-06-10T10:32:47.112Z,85.50
2019-06-10T10:35:32.628Z,87.20
2019-06-10T10:38:17.240Z,87.70
2019-06-10T10:41:04.477Z,85.70
2019-06-10T10:43:52.377Z,88.00
2019-06-10T10:46:36.695Z,86.70
2019-06-10T10:49:23.152Z,84.90
2019-06-10T10:52:07.887Z,82.60
2019-06-10T10:54:54.306Z,80.20
2019-06-10T10:57:40.282Z,78.40
2019-06-10T11:00:36.444Z,79.40
2019-06-10T11:03:16.791Z,79.10
2019-06-10T11:06:02.841Z,80.30
2019-06-10T11:08:48.308Z,79.10
2019-06-10T11:11:33.688Z,78.10
2019-06-10T11:14:19.147Z,77.00
2019-06-10T11:17:03.922Z,80.40
2019-06-10T11:19:49.324Z,79.40
2019-06-10T11:22:34.698Z,80.40
2019-06-10T11:25:19.869Z,82.50
2019-06-10T11:28:05.163Z,85.70
2019-06-10T11:30:52.693Z,86.40
2019-06-10T11:33:37.165Z,90.20
2019-06-10T11:36:22.796Z,87.90
2019-06-10T11:39:08.078Z,90.50
2019-06-10T11:41:53.347Z,85.80
2019-06-10T11:44:39.575Z,81.60
2019-06-10T11:47:24.726Z,79.60
2019-06-10T11:50:12.128Z,75.30
2019-06-10T11:53:00.544Z,69.70
2019-06-10T11:55:43.813Z,71.10
2019-06-10T11:58:28.642Z,73.20
2019-06-10T12:01:13.585Z,67.90
2019-06-10T12:04:00.145Z,71.80
2019-06-10T12:06:45.328Z,72.80
2019-06-10T12:09:30.238Z,76.50
2019-06-10T12:12:15.327Z,75.40
2019-06-10T12:15:01.460Z,74.10
2019-06-10T12:17:50.902Z,78.90
2019-06-10T12:20:33.547Z,78.40
2019-06-10T12:23:18.805Z,78.40
2019-06-10T12:26:05.451Z,76.90
2019-06-10T12:28:54.611Z,77.50
2019-06-10T12:31:38.239Z,79.20
2019-06-10T12:34:23.511Z,78.30
2019-06-10T12:37:15.527Z,77.20
2019-06-10T12:40:12.598Z,80.10
2019-06-10T12:42:59.246Z,76.50
2019-06-10T12:45:43.929Z,76.60
2019-06-10T12:48:29.148Z,78.00
2019-06-10T12:51:14.119Z,81.60
2019-06-10T12:53:59.425Z,82.70
2019-06-10T12:56:44.766Z,85.00
2019-06-10T12:59:32.497Z,87.40
2019-06-10T13:02:23.284Z,88.60
2019-06-10T13:05:07.033Z,89.10
2019-06-10T13:07:53.635Z,90.60
2019-06-10T13:10:43.092Z,90.20
2019-06-10T13:13:28.404Z,91.50
2019-06-10T13:16:14.329Z,91.90
2019-06-10T13:19:00.132Z,92.20
2019-06-10T13:21:45.001Z,93.00
2019-06-10T13:24:29.814Z,91.30
2019-06-10T13:27:17.343Z,91.20
2019-06-10T13:30:04.893Z,92.70
2019-06-10T13:32:52.552Z,91.60
2019-06-10T13:35:36.710Z,92.40
2019-06-10T13:38:25.402Z,91.50
2019-06-10T13:41:08.634Z,89.60
2019-06-10T13:43:53.644Z,90.40
2019-06-10T13:46:38.689Z,90.60
2019-06-10T13:49:25.564Z,90.90
2019-06-10T13:52:16.258Z,90.00
2019-06-10T13:54:57.119Z,90.80
2019-06-10T13:57:44.766Z,90.20
2019-06-10T14:00:40.773Z,90.00
2019-06-10T14:03:16.613Z,90.10
2019-06-10T14:06:11.325Z,89.10
2019-06-10T14:08:48.071Z,90.90
2019-06-10T14:11:34.002Z,90.30
2019-06-10T14:14:20.196Z,90.70
2019-06-10T14:17:07.451Z,88.60
2019-06-10T14:19:52.498Z,90.50
2019-06-10T14:22:37.454Z,90.60
2019-06-10T14:25:23.266Z,90.10
2019-06-10T14:28:10.595Z,90.50
2019-06-10T14:30:55.931Z,91.10
2019-06-10T14:33:42.942Z,90.20
2019-06-10T14:36:28.185Z,91.50
2019-06-10T14:39:15.630Z,90.10
2019-06-10T14:42:00.526Z,90.00
2019-06-10T14:44:45.474Z,90.20
2019-06-10T14:47:32.495Z,90.60
2019-06-10T14:50:18.557Z,88.70
2019-06-10T14:53:04.763Z,89.50
2019-06-10T14:55:52.868Z,85.90
2019-06-10T14:58:36.878Z,89.80
2019-06-10T15:01:25.559Z,88.80
2019-06-10T15:04:10.075Z,90.70
2019-06-10T15:06:55.563Z,88.80
2019-06-10T15:09:40.218Z,85.10
2019-06-10T15:12:25.122Z,89.20
2019-06-10T15:15:10.439Z,89.40
2019-06-10T15:17:55.082Z,90.20
2019-06-10T15:20:42.620Z,90.70
2019-06-10T15:23:26.623Z,90.50
2019-06-10T15:26:14.431Z,90.80
2019-06-10T15:28:58.466Z,89.70
2019-06-10T15:31:43.321Z,87.00
2019-06-10T15:34:28.026Z,87.60
2019-06-10T15:37:15.817Z,85.30
2019-06-10T15:39:59.648Z,88.90
2019-06-10T15:42:46.297Z,88.40
2019-06-10T15:45:32.489Z,89.70
2019-06-10T15:48:18.832Z,89.50
2019-06-10T15:51:04.671Z,89.20
2019-06-10T15:53:49.490Z,89.20
2019-06-10T15:56:45.625Z,90.40
2019-06-10T15:59:21.427Z,91.20
2019-06-10T16:02:06.721Z,90.90
2019-06-10T16:04:52.699Z,90.70
2019-06-10T16:07:37.891Z,92.00
2019-06-10T16:10:27.480Z,91.00
2019-06-10T16:13:10.503Z,91.50
2019-06-10T16:15:55.650Z,92.00
2019-06-10T16:18:42.382Z,92.80
2019-06-10T16:21:27.305Z,92.30
2019-06-10T16:24:13.675Z,93.10
2019-06-10T16:27:03.165Z,94.20
2019-06-10T16:29:47.280Z,94.50
2019-06-10T16:32:33.963Z,94.70
2019-06-10T16:35:18.950Z,95.30
2019-06-10T16:38:04.269Z,95.00
2019-06-10T16:40:49.062Z,95.20
2019-06-10T16:43:33.807Z,95.40
2019-06-10T16:46:18.476Z,95.50
2019-06-10T16:49:03.443Z,95.40
2019-06-10T16:51:48.686Z,95.50
2019-06-10T16:54:33.414Z,96.10
2019-06-10T16:57:18.216Z,95.90
2019-06-10T17:00:11.974Z,96.20
2019-06-10T17:02:55.141Z,97.00
2019-06-10T17:05:42.465Z,96.50
2019-06-10T17:08:30.289Z,95.90
2019-06-10T17:11:15.473Z,95.90
2019-06-10T17:14:00.329Z,96.50
2019-06-10T17:16:45.149Z,96.90
2019-06-10T17:19:30.361Z,96.40
2019-06-10T17:22:15.677Z,96.20
2019-06-10T17:25:00.510Z,96.10
2019-06-10T17:27:45.346Z,96.40
2019-06-10T17:30:34.635Z,97.10
2019-06-10T17:33:22.916Z,97.40
2019-06-10T17:36:08.255Z,97.30
2019-06-10T17:38:52.983Z,97.60
2019-06-10T17:41:37.707Z,97.70
2019-06-10T17:44:24.277Z,97.90
2019-06-10T17:47:09.824Z,98.20
2019-06-10T17:49:54.761Z,98.10
2019-06-10T17:52:39.483Z,98.00
2019-06-10T17:55:26.531Z,97.90
2019-06-10T17:58:13.062Z,98.00
2019-06-10T18:00:58.201Z,97.90
2019-06-10T18:03:43.835Z,97.20
2019-06-10T18:06:29.689Z,97.50
2019-06-10T18:09:14.942Z,97.50
2019-06-10T18:12:02.393Z,97.50
2019-06-10T18:14:47.467Z,97.70
2019-06-10T18:17:34.862Z,97.50
2019-06-10T18:20:19.306Z,97.40
2019-06-10T18:23:04.395Z,97.90
2019-06-10T18:25:49.317Z,97.60
2019-06-10T18:28:53.727Z,97.60
2019-06-10T18:31:23.400Z,97.70
2019-06-10T18:34:08.286Z,97.70
2019-06-10T18:36:53.211Z,97.70
2019-06-10T18:39:37.948Z,97.80
2019-06-10T18:42:23.641Z,97.90
2019-06-10T18:45:10.283Z,97.90
2019-06-10T18:47:57.096Z,97.60
2019-06-10T18:50:43.224Z,97.80
2019-06-10T18:53:28.485Z,97.50
2019-06-10T18:56:13.782Z,97.60
2019-06-10T18:59:13.430Z,98.10
2019-06-10T19:01:45.525Z,97.60
2019-06-10T19:04:35.013Z,97.90
2019-06-10T19:07:18.947Z,97.80
2019-06-10T19:10:06.528Z,97.70
2019-06-10T19:12:53.132Z,97.60
2019-06-10T19:15:39.780Z,97.50
2019-06-10T19:18:26.153Z,97.70
2019-06-10T19:21:12.829Z,98.20
2019-06-10T19:23:59.528Z,98.30
2019-06-10T19:26:45.157Z,98.50
2019-06-10T19:29:38.406Z,98.30
2019-06-10T19:32:17.559Z,98.40
2019-06-10T19:35:06.997Z,98.10
2019-06-10T19:37:51.698Z,98.10
2019-06-10T19:40:38.362Z,98.10
2019-06-10T19:43:25.117Z,98.10
2019-06-10T19:46:10.005Z,98.30
2019-06-10T19:48:59.497Z,98.50
2019-06-10T19:51:44.064Z,98.70
2019-06-10T19:54:28.430Z,98.80
2019-06-10T19:57:13.819Z,99.00
2019-06-10T20:00:08.510Z,99.00
2019-06-10T20:02:47.037Z,99.30
2019-06-10T20:05:34.315Z,99.10
2019-06-10T20:08:19.494Z,99.20
2019-06-10T20:11:04.518Z,99.10
2019-06-10T20:13:49.706Z,99.20
2019-06-10T20:16:37.749Z,99.40
2019-06-10T20:19:23.118Z,99.40
2019-06-10T20:22:08.593Z,99.30
2019-06-10T20:24:53.811Z,99.30
2019-06-10T20:27:39.703Z,99.30
2019-06-10T20:30:28.861Z,99.30
2019-06-10T20:33:14.669Z,99.40
2019-06-10T20:35:59.668Z,99.40
2019-06-10T20:38:48.191Z,99.30
2019-06-10T20:41:32.635Z,99.50
2019-06-10T20:44:17.406Z,99.40
2019-06-10T20:47:02.700Z,99.40
2019-06-10T20:49:51.408Z,99.60
2019-06-10T20:52:34.937Z,99.50
2019-06-10T20:55:20.198Z,99.50
2019-06-10T20:58:07.335Z,99.40
2019-06-10T21:00:56.865Z,99.30
2019-06-10T21:03:39.073Z,99.60
2019-06-10T21:06:26.106Z,99.70
2019-06-10T21:09:13.155Z,99.60
2019-06-10T21:11:57.695Z,99.50
2019-06-10T21:14:44.173Z,99.60
2019-06-10T21:17:29.478Z,99.50
2019-06-10T21:20:16.878Z,99.10
2019-06-10T21:23:03.048Z,98.90
2019-06-10T21:25:50.725Z,99.10
2019-06-10T21:28:35.380Z,99.00
2019-06-10T21:31:20.262Z,99.10
2019-06-10T21:34:05.089Z,99.40
2019-06-10T21:36:49.834Z,99.40
2019-06-10T21:39:34.691Z,99.70
2019-06-10T21:42:19.488Z,99.60
2019-06-10T21:45:04.968Z,99.40
2019-06-10T21:47:50.417Z,99.40
2019-06-10T21:50:35.576Z,99.50
2019-06-10T21:53:22.300Z,99.50
2019-06-10T21:56:07.126Z,99.60
2019-06-10T21:58:55.044Z,99.50
2019-06-10T22:01:38.934Z,99.60
2019-06-10T22:04:23.966Z,99.70
2019-06-10T22:07:08.698Z,99.90
2019-06-10T22:09:56.019Z,99.80
2019-06-10T22:12:42.154Z,99.80
2019-06-10T22:15:27.222Z,99.80
2019-06-10T22:18:12.688Z,99.80
2019-06-10T22:20:57.994Z,99.70
2019-06-10T22:23:44.600Z,99.90
2019-06-10T22:26:32.118Z,99.90
2019-06-10T22:29:16.466Z,99.90
2019-06-10T22:32:02.627Z,99.90
2019-06-10T22:34:47.691Z,99.60
2019-06-10T22:37:32.964Z,99.90
2019-06-10T22:40:18.121Z,99.60
2019-06-10T22:43:03.511Z,99.50
2019-06-10T22:45:49.472Z,99.50
2019-06-10T22:48:34.691Z,99.60
2019-06-10T22:51:19.431Z,99.80
2019-06-10T22:54:04.488Z,99.60
2019-06-10T22:56:49.478Z,99.70
2019-06-10T22:59:34.697Z,99.80
2019-06-10T23:02:19.421Z,99.90
2019-06-10T23:05:05.616Z,99.90
2019-06-10T23:07:53.261Z,99.90
2019-06-10T23:10:38.422Z,99.90
2019-06-10T23:13:23.321Z,99.90
2019-06-10T23:16:08.130Z,99.90
2019-06-10T23:18:55.001Z,99.90
2019-06-10T23:21:39.706Z,99.90
2019-06-10T23:24:24.562Z,99.90
2019-06-10T23:27:09.569Z,99.90
2019-06-10T23:29:56.010Z,99.90
2019-06-10T23:32:42.272Z,99.90
2019-06-10T23:35:27.652Z,99.90
2019-06-10T23:38:13.134Z,99.90
2019-06-10T23:40:58.896Z,99.90
2019-06-10T23:43:45.658Z,99.90
2019-06-10T23:46:31.979Z,99.90
2019-06-10T23:49:17.004Z,99.90
2019-06-10T23:52:04.962Z,99.90
2019-06-10T23:54:48.736Z,99.90
2019-06-10T23:57:33.606Z,99.90
